Airfield :
LOGIN :

Register | Disclaimer

   EN    FR    IT 

 










Legend :    VFR   Marginal VFR   IFR   Intensive IFR   Very Intensive IFR
Visi :
Ceiling :
>= 8 km
>= 3000ft
5 to 8 km
1000 to 3000 ft
1500m to 5 km
500 to 1000 ft
800 to 1500m
200 to 500 ft
< 800m
< 200 ft
Symbols :   Thunderstorms  Fog  Heavy snow  Heavy precipitations  Wind > 20 kt
SIGMETs :     Misc.  Thunderstorms  Icing  Turbulence  Mountain Waves  Volcanic Ashes







- Airport Elevation : 778 ft
- IATA code : BRQ


LKTB - Brno-Turany

CURRENT METAR :
  • 180730Z VRB01KT CAVOK 26/12 Q1019 NOSIG

EXPIRED METARs :
  • 180727Z VRB01KT CAVOK 26/12 Q1019 RMK REG QNH 1016
  • 180700Z VRB02KT CAVOK 24/11 Q1019 NOSIG
  • 180644Z VRB02KT CAVOK 23/11 Q1019 RMK REG QNH 1016
  • 180630Z VRB01KT CAVOK 21/11 Q1019 NOSIG
  • 180600Z VRB02KT CAVOK 21/11 Q1019 NOSIG
  • 180530Z VRB02KT CAVOK 20/11 Q1019 NOSIG
  • 180500Z 33004KT 270V360 CAVOK 17/10 Q1018 NOSIG

TAF TAF LKTB
Valid from the 18 at 06:00 until the 19 at 12:00 UTC


180500Z 1806/1912 VRB02KT CAVOK
BECMG 1808/1810 15004KT
PROB30
TEMPO 1810/1817 09012KT 7000 SHRA SCT060CB
BECMG 1822/1900 VRB02KT
PROB30
TEMPO 1910/1912 14010KT 7000 SHRA SCT060CB
No reported NOTAMs for that airfield.



MET'MAP, your aeronautical weather chart ! - Copyright ORBIFLY December 2007 - Disclaimer

ORBIFLY MET'MAP TEAM :

Programming & Development : Alexandra Zaïnal
Concept & Development : Baudouin d'Aumeries
Co-Development & Prog : Marc-Olivier Méhu
Technical & hardware support : Manuel Goepfert

Contact : metmap@orbifly.com




SOURCES & CREDITS :

   NOAA